createdAt,value
2018-03-06T00:02:08.388Z,-1.20
2018-03-06T00:04:34.854Z,-1.20
2018-03-06T00:07:01.299Z,-1.20
2018-03-06T00:09:27.737Z,-1.20
2018-03-06T00:11:54.191Z,-1.20
2018-03-06T00:14:21.493Z,-1.20
2018-03-06T00:16:47.943Z,-1.20
2018-03-06T00:19:14.503Z,-1.20
2018-03-06T00:21:40.938Z,-1.20
2018-03-06T00:24:08.153Z,-1.20
2018-03-06T00:26:35.135Z,-1.20
2018-03-06T00:29:01.551Z,-1.20
2018-03-06T00:31:27.969Z,-1.20
2018-03-06T00:33:55.143Z,-1.10
2018-03-06T00:36:22.355Z,-1.10
2018-03-06T00:38:48.766Z,-1.10
2018-03-06T00:41:15.235Z,-1.10
2018-03-06T00:43:42.578Z,-1.00
2018-03-06T00:46:08.981Z,-1.10
2018-03-06T00:48:36.275Z,-1.00
2018-03-06T00:51:02.774Z,-1.00
2018-03-06T00:53:29.215Z,-1.00
2018-03-06T00:55:55.657Z,-1.00
2018-03-06T00:58:22.055Z,-1.00
2018-03-06T01:00:48.965Z,-1.00
2018-03-06T01:03:15.404Z,-1.00
2018-03-06T01:05:42.650Z,-1.10
2018-03-06T01:08:09.419Z,-1.10
2018-03-06T01:10:36.599Z,-1.10
2018-03-06T01:13:03.772Z,-1.10
2018-03-06T01:15:30.979Z,-1.10
2018-03-06T01:17:57.387Z,-1.10
2018-03-06T01:20:23.853Z,-1.20
2018-03-06T01:22:50.301Z,-1.20
2018-03-06T01:25:17.496Z,-1.20
2018-03-06T01:27:44.688Z,-1.20
2018-03-06T01:30:11.114Z,-1.20
2018-03-06T01:32:38.277Z,-1.10
2018-03-06T01:35:04.717Z,-1.20
2018-03-06T01:37:31.191Z,-1.10
2018-03-06T01:39:58.507Z,-1.10
2018-03-06T01:42:24.915Z,-1.10
2018-03-06T01:44:51.358Z,-1.10
2018-03-06T01:47:17.792Z,-1.00
2018-03-06T01:49:44.222Z,-1.10
2018-03-06T01:52:10.684Z,-1.10
2018-03-06T01:54:37.129Z,-1.10
2018-03-06T01:57:03.595Z,-1.10
2018-03-06T01:59:30.035Z,-1.10
2018-03-06T02:01:56.486Z,-1.10
2018-03-06T02:04:22.909Z,-1.10
2018-03-06T02:06:49.420Z,-1.10
2018-03-06T02:09:15.893Z,-1.00
2018-03-06T02:11:42.399Z,-1.10
2018-03-06T02:14:09.574Z,-1.10
2018-03-06T02:16:36.881Z,-1.10
2018-03-06T02:19:03.428Z,-1.20
2018-03-06T02:21:29.871Z,-1.10
2018-03-06T02:23:57.170Z,-1.10
2018-03-06T02:26:25.747Z,-1.10
2018-03-06T02:28:53.049Z,-1.20
2018-03-06T02:31:19.482Z,-1.20
2018-03-06T02:33:46.676Z,-1.30
2018-03-06T02:36:13.122Z,-1.30
2018-03-06T02:38:39.570Z,-1.30
2018-03-06T02:41:06.018Z,-1.30
2018-03-06T02:43:33.192Z,-1.30
2018-03-06T02:46:09.571Z,-1.40
2018-03-06T02:48:36.002Z,-1.40
2018-03-06T02:51:02.474Z,-1.40
2018-03-06T02:53:29.722Z,-1.30
2018-03-06T02:55:58.152Z,-1.40
2018-03-06T02:58:24.610Z,-1.30
2018-03-06T03:00:51.766Z,-1.30
2018-03-06T03:03:18.953Z,-1.30
2018-03-06T03:05:46.125Z,-1.30
2018-03-06T03:08:13.303Z,-1.30
2018-03-06T03:10:40.587Z,-1.30
2018-03-06T03:13:07.019Z,-1.30
2018-03-06T03:15:34.196Z,-1.20
2018-03-06T03:18:01.405Z,-1.20
2018-03-06T03:20:27.841Z,-1.20
2018-03-06T03:22:54.284Z,-1.20
2018-03-06T03:25:21.497Z,-1.20
2018-03-06T03:27:48.045Z,-1.20
2018-03-06T03:30:14.613Z,-1.10
2018-03-06T03:32:41.024Z,-1.10
2018-03-06T03:35:08.212Z,-1.10
2018-03-06T03:37:34.790Z,-1.20
2018-03-06T03:40:01.224Z,-1.10
2018-03-06T03:42:28.402Z,-1.10
2018-03-06T03:44:55.841Z,-1.10
2018-03-06T03:47:22.293Z,-1.10
2018-03-06T03:49:48.752Z,-1.20
2018-03-06T03:52:15.267Z,-1.10
2018-03-06T03:54:41.709Z,-1.20
2018-03-06T03:57:08.150Z,-1.10
2018-03-06T03:59:35.328Z,-1.10
2018-03-06T04:02:03.214Z,-1.10
2018-03-06T04:04:30.420Z,-1.10
2018-03-06T04:06:56.888Z,-1.10
2018-03-06T04:09:23.331Z,-1.10
2018-03-06T04:11:49.884Z,-1.00
2018-03-06T04:14:16.317Z,-1.00
2018-03-06T04:16:42.775Z,-1.00
2018-03-06T04:19:09.197Z,-1.00
2018-03-06T04:21:35.667Z,-1.00
2018-03-06T04:24:02.836Z,-0.90
2018-03-06T04:26:29.287Z,-0.90
2018-03-06T04:28:56.491Z,-0.80
2018-03-06T04:31:23.677Z,-0.70
2018-03-06T04:33:50.148Z,-0.70
2018-03-06T04:36:16.619Z,-0.70
2018-03-06T04:38:43.890Z,-0.70
2018-03-06T04:41:10.332Z,-0.60
2018-03-06T04:43:36.738Z,-0.60
2018-03-06T04:46:04.006Z,-0.60
2018-03-06T04:48:30.445Z,-0.60
2018-03-06T04:50:56.881Z,-0.60
2018-03-06T04:53:23.425Z,-0.60
2018-03-06T04:55:49.858Z,-0.60
2018-03-06T04:58:17.051Z,-0.60
2018-03-06T05:00:43.502Z,-0.60
2018-03-06T05:03:09.933Z,-0.60
2018-03-06T05:05:37.100Z,-0.70
2018-03-06T05:08:04.280Z,-0.80
2018-03-06T05:10:31.464Z,-0.80
2018-03-06T05:12:57.923Z,-0.80
2018-03-06T05:15:24.393Z,-0.80
2018-03-06T05:17:50.830Z,-0.80
2018-03-06T05:20:17.410Z,-0.80
2018-03-06T05:22:43.882Z,-0.80
2018-03-06T05:25:10.318Z,-0.80
2018-03-06T05:27:36.768Z,-0.80
2018-03-06T05:30:03.255Z,-0.80
2018-03-06T05:32:29.737Z,-0.80
2018-03-06T05:34:56.185Z,-0.80
2018-03-06T05:37:22.601Z,-0.80
2018-03-06T05:39:49.114Z,-0.80
2018-03-06T05:42:15.549Z,-0.80
2018-03-06T05:44:41.979Z,-0.70
2018-03-06T05:47:08.442Z,-0.70
2018-03-06T05:49:34.912Z,-0.70
2018-03-06T05:52:01.341Z,-0.70
2018-03-06T05:54:27.779Z,-0.60
2018-03-06T05:56:54.277Z,-0.60
2018-03-06T05:59:20.714Z,-0.60
2018-03-06T06:01:47.159Z,-0.60
2018-03-06T06:04:13.575Z,-0.60
2018-03-06T06:06:39.999Z,-0.60
2018-03-06T06:09:06.442Z,-0.60
2018-03-06T06:11:32.968Z,-0.60
2018-03-06T06:13:59.418Z,-0.60
2018-03-06T06:16:25.880Z,-0.60
2018-03-06T06:18:52.308Z,-0.50
2018-03-06T06:21:18.774Z,-0.50
2018-03-06T06:23:45.193Z,-0.50
2018-03-06T06:26:13.617Z,-0.50
2018-03-06T06:28:40.042Z,-0.50
2018-03-06T06:31:06.462Z,-0.50
2018-03-06T06:33:33.042Z,-0.40
2018-03-06T06:35:59.472Z,-0.40
2018-03-06T06:38:25.882Z,-0.40
2018-03-06T06:40:52.323Z,-0.40
2018-03-06T06:43:18.732Z,-0.30
2018-03-06T06:45:45.219Z,-0.30
2018-03-06T06:48:12.365Z,-0.20
2018-03-06T06:50:39.449Z,-0.20
2018-03-06T06:53:06.634Z,-0.10
2018-03-06T06:55:33.758Z,-0.10
2018-03-06T06:58:00.230Z,-0.10
2018-03-06T07:00:27.256Z,-0.10
2018-03-06T07:02:53.724Z,-0.10
2018-03-06T07:05:20.246Z,-0.10
2018-03-06T07:07:46.750Z,0.00
2018-03-06T07:10:13.392Z,0.10
2018-03-06T07:12:39.805Z,0.10
2018-03-06T07:15:06.978Z,0.30
2018-03-06T07:17:34.092Z,0.40
2018-03-06T07:20:00.538Z,0.30
2018-03-06T07:22:26.954Z,0.40
2018-03-06T07:24:54.137Z,0.50
2018-03-06T07:27:21.419Z,0.50
2018-03-06T07:29:48.575Z,0.50
2018-03-06T07:32:15.748Z,0.50
2018-03-06T07:34:42.925Z,0.50
2018-03-06T07:37:10.082Z,0.60
2018-03-06T07:39:36.524Z,0.60
2018-03-06T07:42:04.280Z,0.70
2018-03-06T07:44:31.062Z,0.80
2018-03-06T07:46:57.482Z,0.80
2018-03-06T07:49:24.863Z,0.90
2018-03-06T07:51:51.298Z,0.90
2018-03-06T07:54:18.458Z,0.90
2018-03-06T07:56:45.746Z,1.00
2018-03-06T07:59:12.900Z,1.00
2018-03-06T08:01:39.318Z,1.00
2018-03-06T08:04:05.730Z,1.00
2018-03-06T08:06:33.077Z,1.10
2018-03-06T08:09:00.225Z,1.00
2018-03-06T08:11:26.683Z,1.00
2018-03-06T08:13:53.131Z,1.10
2018-03-06T08:16:19.587Z,1.10
2018-03-06T08:18:46.110Z,1.20
2018-03-06T08:21:12.525Z,1.40
2018-03-06T08:23:38.966Z,1.50
2018-03-06T08:26:05.427Z,1.60
2018-03-06T08:28:32.446Z,1.50
2018-03-06T08:30:58.997Z,1.40
2018-03-06T08:33:26.167Z,1.30
2018-03-06T08:35:54.047Z,1.30
2018-03-06T08:38:21.188Z,1.30
2018-03-06T08:40:47.790Z,1.20
2018-03-06T08:43:15.021Z,1.40
2018-03-06T08:45:42.230Z,1.50
2018-03-06T08:48:09.517Z,1.70
2018-03-06T08:50:35.960Z,1.70
2018-03-06T08:53:03.164Z,1.70
2018-03-06T08:55:29.564Z,1.70
2018-03-06T08:57:56.033Z,1.70
2018-03-06T09:00:23.216Z,1.70
2018-03-06T09:02:50.382Z,1.80
2018-03-06T09:05:17.544Z,1.90
2018-03-06T09:07:44.024Z,1.90
2018-03-06T09:10:11.197Z,2.20
2018-03-06T09:12:38.388Z,2.30
2018-03-06T09:15:04.851Z,2.20
2018-03-06T09:17:31.327Z,2.50
2018-03-06T09:19:57.839Z,2.60
2018-03-06T09:22:25.059Z,2.70
2018-03-06T09:24:51.755Z,2.70
2018-03-06T09:27:19.014Z,2.70
2018-03-06T09:29:45.471Z,2.70
2018-03-06T09:32:12.850Z,2.80
2018-03-06T09:34:39.884Z,2.90
2018-03-06T09:37:09.885Z,2.80
2018-03-06T09:39:37.158Z,2.90
2018-03-06T09:42:04.344Z,2.90
2018-03-06T09:44:30.891Z,2.90
2018-03-06T09:46:58.164Z,3.00
2018-03-06T09:49:25.320Z,3.10
2018-03-06T09:51:52.475Z,3.10
2018-03-06T09:54:18.898Z,3.10
2018-03-06T09:56:45.346Z,3.10
2018-03-06T09:59:11.774Z,3.20
2018-03-06T10:01:39.049Z,3.30
2018-03-06T10:04:06.213Z,3.30
2018-03-06T10:06:33.355Z,3.40
2018-03-06T10:09:00.631Z,3.50
2018-03-06T10:11:27.058Z,3.50
2018-03-06T10:13:53.444Z,3.60
2018-03-06T10:16:19.864Z,3.80
2018-03-06T10:18:46.316Z,3.90
2018-03-06T10:21:12.769Z,4.00
2018-03-06T10:23:39.182Z,4.00
2018-03-06T10:26:05.626Z,4.00
2018-03-06T10:28:32.069Z,3.90
2018-03-06T10:30:58.489Z,3.70
2018-03-06T10:33:25.511Z,3.70
2018-03-06T10:35:51.940Z,3.60
2018-03-06T10:38:18.896Z,3.60
2018-03-06T10:40:45.380Z,3.60
2018-03-06T10:43:11.789Z,3.60
2018-03-06T10:45:38.209Z,3.60
2018-03-06T10:48:04.629Z,3.60
2018-03-06T10:50:31.144Z,3.60
2018-03-06T10:52:58.322Z,3.60
2018-03-06T10:55:24.871Z,3.70
2018-03-06T10:57:52.030Z,3.60
2018-03-06T11:00:25.147Z,3.60
2018-03-06T11:02:52.836Z,3.50
2018-03-06T11:05:20.037Z,3.40
2018-03-06T11:07:46.457Z,3.40
2018-03-06T11:10:13.736Z,3.30
2018-03-06T11:12:40.910Z,3.30
2018-03-06T11:15:07.818Z,3.30
2018-03-06T11:17:34.437Z,3.30
2018-03-06T11:20:01.708Z,3.30
2018-03-06T11:22:28.890Z,3.40
2018-03-06T11:24:55.321Z,3.40
2018-03-06T11:27:22.522Z,3.60
2018-03-06T11:29:48.976Z,3.60
2018-03-06T11:32:15.361Z,3.60
2018-03-06T11:34:41.773Z,3.60
2018-03-06T11:37:08.945Z,3.70
2018-03-06T11:39:36.158Z,3.70
2018-03-06T11:42:02.551Z,3.70
2018-03-06T11:44:29.662Z,3.70
2018-03-06T11:46:56.091Z,3.70
2018-03-06T11:49:23.262Z,3.90
2018-03-06T11:51:50.435Z,4.00
2018-03-06T11:54:17.583Z,4.10
2018-03-06T11:56:43.998Z,4.10
2018-03-06T11:59:10.480Z,4.20
2018-03-06T12:01:36.893Z,4.10
2018-03-06T12:04:03.336Z,4.10
2018-03-06T12:06:30.488Z,3.90
2018-03-06T12:08:56.946Z,3.90
2018-03-06T12:11:23.349Z,3.90
2018-03-06T12:13:49.787Z,3.90
2018-03-06T12:16:16.204Z,3.90
2018-03-06T12:18:42.645Z,3.80
2018-03-06T12:21:09.085Z,3.80
2018-03-06T12:23:35.498Z,3.90
2018-03-06T12:26:02.708Z,3.80
2018-03-06T12:28:29.232Z,3.80
2018-03-06T12:30:56.392Z,3.70
2018-03-06T12:33:23.526Z,3.70
2018-03-06T12:35:49.943Z,3.70
2018-03-06T12:38:16.391Z,3.60
2018-03-06T12:40:42.851Z,3.60
2018-03-06T12:43:09.308Z,3.60
2018-03-06T12:45:36.369Z,3.60
2018-03-06T12:48:03.566Z,3.60
2018-03-06T12:50:30.019Z,3.60
2018-03-06T12:52:56.462Z,3.60
2018-03-06T12:55:22.885Z,3.70
2018-03-06T12:57:49.299Z,3.60
2018-03-06T13:00:15.727Z,3.50
2018-03-06T13:02:42.193Z,3.30
2018-03-06T13:05:08.615Z,3.30
2018-03-06T13:07:35.092Z,3.20
2018-03-06T13:10:01.519Z,3.10
2018-03-06T13:12:27.934Z,3.10
2018-03-06T13:14:54.407Z,3.00
2018-03-06T13:17:20.831Z,2.90
2018-03-06T13:19:47.271Z,2.90
2018-03-06T13:22:14.476Z,2.80
2018-03-06T13:24:40.998Z,2.80
2018-03-06T13:27:08.173Z,2.70
2018-03-06T13:29:35.358Z,2.70
2018-03-06T13:32:02.514Z,2.70
2018-03-06T13:34:29.678Z,2.70
2018-03-06T13:36:56.857Z,2.70
2018-03-06T13:39:24.061Z,2.70
2018-03-06T13:41:50.443Z,2.70
2018-03-06T13:44:16.898Z,2.60
2018-03-06T13:46:43.322Z,2.60
2018-03-06T13:49:09.740Z,2.50
2018-03-06T13:51:36.961Z,2.40
2018-03-06T13:54:03.500Z,2.40
2018-03-06T13:56:29.966Z,2.40
2018-03-06T13:58:56.530Z,2.40
2018-03-06T14:01:22.934Z,2.40
2018-03-06T14:03:49.355Z,2.40
2018-03-06T14:06:15.821Z,2.30
2018-03-06T14:08:42.230Z,2.30
2018-03-06T14:11:08.742Z,2.20
2018-03-06T14:13:35.200Z,2.10
2018-03-06T14:16:01.614Z,2.10
2018-03-06T14:18:28.052Z,2.10
2018-03-06T14:20:54.463Z,2.00
2018-03-06T14:23:20.881Z,2.10
2018-03-06T14:25:47.378Z,2.10
2018-03-06T14:28:17.569Z,2.10
2018-03-06T14:30:44.070Z,2.20
2018-03-06T14:33:10.672Z,2.10
2018-03-06T14:35:37.150Z,2.10
2018-03-06T14:38:03.722Z,2.10
2018-03-06T14:40:30.184Z,2.10
2018-03-06T14:42:56.702Z,2.00
2018-03-06T14:45:23.888Z,2.00
2018-03-06T14:47:50.309Z,2.00
2018-03-06T14:50:16.739Z,2.10
2018-03-06T14:52:43.160Z,2.00
2018-03-06T14:55:10.402Z,2.00
2018-03-06T14:57:37.570Z,2.00
2018-03-06T15:00:04.742Z,2.00
2018-03-06T15:02:31.186Z,2.00
2018-03-06T15:04:57.759Z,2.00
2018-03-06T15:07:24.907Z,2.00
2018-03-06T15:09:52.851Z,2.10
2018-03-06T15:12:19.257Z,2.10
2018-03-06T15:14:45.661Z,2.20
2018-03-06T15:17:12.094Z,2.20
2018-03-06T15:19:41.410Z,2.30
2018-03-06T15:22:08.546Z,2.40
2018-03-06T15:24:35.051Z,2.40
2018-03-06T15:27:02.329Z,2.50
2018-03-06T15:29:28.790Z,2.50
2018-03-06T15:31:55.274Z,2.50
2018-03-06T15:34:21.795Z,2.60
2018-03-06T15:36:49.014Z,2.70
2018-03-06T15:39:16.856Z,2.70
2018-03-06T15:41:46.046Z,2.70
2018-03-06T15:44:13.659Z,2.70
2018-03-06T15:46:41.953Z,2.80
2018-03-06T15:49:08.493Z,2.70
2018-03-06T15:51:35.783Z,2.80
2018-03-06T15:54:03.059Z,2.80
2018-03-06T15:56:30.371Z,2.80
2018-03-06T15:58:57.097Z,2.80
2018-03-06T16:01:24.066Z,2.80
2018-03-06T16:03:50.592Z,2.80
2018-03-06T16:06:17.183Z,2.80
2018-03-06T16:08:46.219Z,2.70
2018-03-06T16:11:12.768Z,2.70
2018-03-06T16:13:39.415Z,2.70
2018-03-06T16:16:05.975Z,2.70
2018-03-06T16:18:32.447Z,2.60
2018-03-06T16:20:59.396Z,2.60
2018-03-06T16:23:26.057Z,2.60
2018-03-06T16:25:53.290Z,2.50
2018-03-06T16:28:19.791Z,2.50
2018-03-06T16:30:46.288Z,2.50
2018-03-06T16:33:12.741Z,2.50
2018-03-06T16:35:39.803Z,2.50
2018-03-06T16:38:06.333Z,2.50
2018-03-06T16:40:33.602Z,2.40
2018-03-06T16:43:00.777Z,2.40
2018-03-06T16:45:27.239Z,2.40
2018-03-06T16:47:53.642Z,2.40
2018-03-06T16:50:20.073Z,2.40
2018-03-06T16:52:46.493Z,2.30
2018-03-06T16:55:13.640Z,2.20
2018-03-06T16:57:40.070Z,2.20
2018-03-06T17:00:06.536Z,2.20
2018-03-06T17:02:35.392Z,2.10
2018-03-06T17:05:02.830Z,2.10
2018-03-06T17:07:29.274Z,2.10
2018-03-06T17:09:55.713Z,2.10
2018-03-06T17:12:22.150Z,2.10
2018-03-06T17:14:48.594Z,2.10
2018-03-06T17:17:15.767Z,2.00
2018-03-06T17:19:42.203Z,2.00
2018-03-06T17:22:09.339Z,2.00
2018-03-06T17:24:35.850Z,2.00
2018-03-06T17:27:03.103Z,2.00
2018-03-06T17:29:30.306Z,2.00
2018-03-06T17:31:56.724Z,2.00
2018-03-06T17:34:23.248Z,2.10
2018-03-06T17:36:49.649Z,2.00
2018-03-06T17:39:16.122Z,2.00
2018-03-06T17:41:43.260Z,2.10
2018-03-06T17:44:09.718Z,2.10
2018-03-06T17:46:36.106Z,2.10
2018-03-06T17:49:03.146Z,2.00
2018-03-06T17:51:30.337Z,2.10
2018-03-06T17:53:57.577Z,2.00
2018-03-06T17:56:23.984Z,2.00
2018-03-06T17:58:50.450Z,2.00
2018-03-06T18:01:16.856Z,2.00
2018-03-06T18:03:43.285Z,2.00
2018-03-06T18:06:09.801Z,2.00
2018-03-06T18:08:37.076Z,2.00
2018-03-06T18:11:04.300Z,2.00
2018-03-06T18:13:30.810Z,2.00
2018-03-06T18:15:57.286Z,2.00
2018-03-06T18:18:23.825Z,2.00
2018-03-06T18:20:50.263Z,2.00
2018-03-06T18:23:17.550Z,2.00
2018-03-06T18:25:44.731Z,2.00
2018-03-06T18:28:11.329Z,2.00
2018-03-06T18:30:37.742Z,2.00
2018-03-06T18:33:04.173Z,2.10
2018-03-06T18:35:31.354Z,2.10
2018-03-06T18:37:58.562Z,2.10
2018-03-06T18:40:25.099Z,2.10
2018-03-06T18:42:52.279Z,2.10
2018-03-06T18:45:18.701Z,2.10
2018-03-06T18:47:45.105Z,2.10
2018-03-06T18:50:32.434Z,2.10
2018-03-06T18:52:58.887Z,2.10
2018-03-06T18:55:25.260Z,2.10
2018-03-06T18:57:51.691Z,2.20
2018-03-06T19:14:00.885Z,2.20
2018-03-06T19:16:28.156Z,2.10
2018-03-06T19:18:54.861Z,2.10
2018-03-06T19:21:21.272Z,2.10
2018-03-06T19:23:47.815Z,2.10
2018-03-06T19:26:14.300Z,2.10
2018-03-06T19:28:40.883Z,2.10
2018-03-06T19:31:07.441Z,2.10
2018-03-06T19:33:34.606Z,2.10
2018-03-06T19:36:01.732Z,2.00
2018-03-06T19:38:28.993Z,2.00
2018-03-06T19:40:55.413Z,2.00
2018-03-06T19:43:23.986Z,1.90
2018-03-06T19:45:50.460Z,1.90
2018-03-06T19:48:20.183Z,1.90
2018-03-06T19:50:46.626Z,1.90
2018-03-06T19:53:13.053Z,1.90
2018-03-06T19:55:39.574Z,1.90
2018-03-06T19:58:06.745Z,1.90
2018-03-06T20:00:33.274Z,1.90
2018-03-06T20:03:00.457Z,1.90
2018-03-06T20:05:26.878Z,1.80
2018-03-06T20:07:53.486Z,1.80
2018-03-06T20:10:20.679Z,1.80
2018-03-06T20:12:47.111Z,1.80
2018-03-06T20:15:16.369Z,1.80
2018-03-06T20:17:42.997Z,1.80
2018-03-06T20:20:10.189Z,1.90
2018-03-06T20:22:36.603Z,1.80
2018-03-06T20:25:09.008Z,1.80
2018-03-06T20:27:36.150Z,1.80
2018-03-06T20:30:02.630Z,1.80
2018-03-06T20:32:36.010Z,1.80
2018-03-06T20:35:02.676Z,1.80
2018-03-06T20:37:29.993Z,1.80
2018-03-06T20:40:02.522Z,1.80
2018-03-06T20:42:28.970Z,1.90
2018-03-06T20:44:55.553Z,1.90
2018-03-06T20:47:22.155Z,1.90
2018-03-06T20:49:49.524Z,1.90
2018-03-06T20:52:16.707Z,1.80
2018-03-06T20:54:49.740Z,1.80
2018-03-06T20:57:17.381Z,1.80
2018-03-06T20:59:43.858Z,1.80
2018-03-06T21:02:10.561Z,1.70
2018-03-06T21:04:37.020Z,1.70
2018-03-06T21:07:03.626Z,1.60
2018-03-06T21:09:30.182Z,1.60
2018-03-06T21:11:56.739Z,1.60
2018-03-06T21:14:23.205Z,1.60
2018-03-06T21:16:49.615Z,1.50
2018-03-06T21:19:16.110Z,1.50
2018-03-06T21:21:43.390Z,1.50
2018-03-06T21:24:09.886Z,1.50
2018-03-06T21:26:36.342Z,1.50
2018-03-06T21:29:02.850Z,1.50
2018-03-06T21:31:30.129Z,1.40
2018-03-06T21:33:56.795Z,1.40
2018-03-06T21:36:23.276Z,1.40
2018-03-06T21:38:49.709Z,1.50
2018-03-06T21:41:16.165Z,1.50
2018-03-06T21:43:42.603Z,1.50
2018-03-06T21:46:09.762Z,1.40
2018-03-06T21:48:36.187Z,1.40
2018-03-06T21:51:02.695Z,1.40
2018-03-06T21:53:30.406Z,1.30
2018-03-06T21:55:57.643Z,1.40
2018-03-06T21:58:24.814Z,1.30
2018-03-06T22:00:52.011Z,1.30
2018-03-06T22:03:18.443Z,1.30
2018-03-06T22:05:44.869Z,1.30
2018-03-06T22:08:11.285Z,1.30
2018-03-06T22:10:37.704Z,1.40
2018-03-06T22:13:04.856Z,1.40
2018-03-06T22:15:31.252Z,1.40
2018-03-06T22:17:58.526Z,1.50
2018-03-06T22:20:25.691Z,1.50
2018-03-06T22:22:52.145Z,1.50
2018-03-06T22:25:19.293Z,1.60
2018-03-06T22:27:47.317Z,1.60
2018-03-06T22:30:14.504Z,1.70
2018-03-06T22:32:41.748Z,1.60
2018-03-06T22:35:08.889Z,1.70
2018-03-06T22:37:35.309Z,1.70
2018-03-06T22:40:01.793Z,1.70
2018-03-06T22:42:28.223Z,1.70
2018-03-06T22:44:54.641Z,1.80
2018-03-06T22:47:21.139Z,1.80
2018-03-06T22:49:47.557Z,1.80
2018-03-06T22:52:14.724Z,1.70
2018-03-06T22:54:41.124Z,1.70
2018-03-06T22:57:07.542Z,1.60
2018-03-06T22:59:34.699Z,1.70
2018-03-06T23:02:01.289Z,1.60
2018-03-06T23:04:27.720Z,1.70
2018-03-06T23:06:54.148Z,1.70
2018-03-06T23:09:20.574Z,1.70
2018-03-06T23:11:47.575Z,1.80
2018-03-06T23:14:14.076Z,1.80
2018-03-06T23:16:41.276Z,1.80
2018-03-06T23:19:07.812Z,1.80
2018-03-06T23:21:34.240Z,1.80
2018-03-06T23:24:00.650Z,1.80
2018-03-06T23:26:27.081Z,1.80
2018-03-06T23:28:53.504Z,1.90
2018-03-06T23:31:19.971Z,1.90
2018-03-06T23:33:47.126Z,1.80
2018-03-06T23:36:13.545Z,1.80
2018-03-06T23:38:39.979Z,1.80
2018-03-06T23:41:06.384Z,1.80
2018-03-06T23:43:32.814Z,1.80
2018-03-06T23:45:59.962Z,1.80
2018-03-06T23:48:26.387Z,1.80
2018-03-06T23:50:52.778Z,1.90
2018-03-06T23:53:19.159Z,1.80
2018-03-06T23:55:45.579Z,1.80
2018-03-06T23:58:12.001Z,1.70
